Accueil
METAR-TAF:

METAR-TAF

Aéroports :

Samsun, Turquie

latitude: 41-15-15N, longitude: 036-34-03E, altitude: 5 m

Observation

Le bulletin a été fait il y a 37 minutes, à 15:50 UTC
Vent 4 kt de est/nord-est
Température 8°C
Humidité 66%
Pression 1021 hPa
Visibilité 10 km ou plus
Nuages épars à une hauteur de 3600 ft

METAR: LTFH 251550Z 07004KT 9999 SCT036 08/02 Q1021 NOSIG

Heure: 19:27 (16:27 UTC)

Prévision

Le bulletin a été fait il y a 2 heures et 47 minutes, à 13:40 UTC
Prévision valable du 25 à 15 UTC au 25 à 24 UTC
Vent 6 kt de nord/nord-ouest
Visibilité 10 km ou plus
Nuages épars à une hauteur de 3600 ft
Evoluant progressivement
du 25 à 15 UTC au 25 à 18 UTC
Visibilité 10 km ou plus
pas de nuages en-dessous de 1500 mètres et pas de cumulonimbus.

TAF: LTFH 251340Z 2515/2524 34006KT 9999 SCT036 BECMG 2515/2518 CAVOK

Observations et prévisions météorologiques de plus de 4000 aéroports (messages METAR et TAF).

Les stations disponibles sont représentées par des disques jaunes et rouges sur la carte.

Passer la souris dessus pour voir le nom de la station.

Cliquer dessus pour voir les observations et prévisions météorologiques.

Pour changer de carte: cliquez sur les boutons verts avec une croix noire pour zoomer, sur le bouton vert avec un tiret pour effectuer un zoom arrière, ou sur les flèches vertes pour les cartes adjacentes.


METAR-TAF: